Terminal Aerodrome Forecast
Issued by NWS

Current Version | Previous Version | Text Only | Print | Product List | Glossary On
Versions: 1 2 3 4 5 6 7 8 9 10 11 12 13
000
FTUS42 TJSJ 172320
TAFKPK
TAF
TKPK 172320Z 1800/1824 17005KT P6SM FEW019 SCT030
     FM180500 14004KT P6SM VCSH SCT019
     FM181200 17008KT P6SM SCT022 SCT040
      AMD NOT SKED 1802/1811=

USA.gov is the U.S. government's official web portal to all federal, state and local government web resources and services.